createdAt,value
2018-07-07T00:01:20.673Z,52.17
2018-07-07T00:03:48.441Z,10.60
2018-07-07T00:06:16.620Z,3.33
2018-07-07T00:08:44.435Z,1.80
2018-07-07T00:11:12.750Z,2.07
2018-07-07T00:13:41.468Z,1.53
2018-07-07T00:16:09.411Z,1.00
2018-07-07T00:18:37.954Z,2.43
2018-07-07T00:21:06.802Z,2.90
2018-07-07T00:23:34.711Z,1.10
2018-07-07T00:26:03.273Z,2.40
2018-07-07T00:28:31.358Z,1.70
2018-07-07T00:30:59.076Z,1.43
2018-07-07T00:33:27.586Z,1.53
2018-07-07T00:35:55.689Z,2.27
2018-07-07T00:38:23.611Z,1.70
2018-07-07T00:40:51.507Z,2.10
2018-07-07T00:43:20.318Z,2.00
2018-07-07T00:45:48.833Z,2.73
2018-07-07T00:48:16.718Z,2.10
2018-07-07T00:50:45.552Z,1.57
2018-07-07T00:53:13.478Z,9.73
2018-07-07T00:55:41.479Z,1.57
2018-07-07T00:58:09.281Z,2.37
2018-07-07T01:00:42.394Z,1.30
2018-07-07T01:03:10.468Z,1.77
2018-07-07T01:05:38.931Z,1.50
2018-07-07T01:08:06.897Z,1.27
2018-07-07T01:10:34.848Z,2.13
2018-07-07T01:13:02.637Z,1.83
2018-07-07T01:15:30.604Z,2.00
2018-07-07T01:17:58.462Z,2.03
2018-07-07T01:20:26.420Z,41.30
2018-07-07T01:22:54.193Z,1.43
2018-07-07T01:25:22.096Z,1.50
2018-07-07T01:27:50.038Z,1.60
2018-07-07T01:30:17.827Z,12.13
2018-07-07T01:32:45.720Z,436.07
2018-07-07T01:35:13.619Z,4.93
2018-07-07T01:37:41.435Z,8.83
2018-07-07T01:40:09.293Z,21.37
2018-07-07T01:42:36.964Z,21.40
2018-07-07T01:45:05.316Z,3.37
2018-07-07T01:47:33.381Z,2.10
2018-07-07T01:50:01.165Z,4.13
2018-07-07T01:52:28.892Z,14.47
2018-07-07T01:54:57.003Z,2.13
2018-07-07T01:57:24.905Z,1.73
2018-07-07T01:59:53.332Z,1.40
2018-07-07T02:02:21.228Z,1.30
2018-07-07T02:04:49.013Z,2.90
2018-07-07T02:07:16.679Z,1.50
2018-07-07T02:09:44.390Z,1.40
2018-07-07T02:12:12.056Z,2.67
2018-07-07T02:14:40.360Z,1.43
2018-07-07T02:17:08.449Z,2.00
2018-07-07T02:19:36.419Z,1.93
2018-07-07T02:22:04.235Z,1.57
2018-07-07T02:24:32.068Z,1.30
2018-07-07T02:26:59.989Z,1.07
2018-07-07T02:29:27.826Z,2.57
2018-07-07T02:31:55.657Z,2.37
2018-07-07T02:34:24.520Z,1.73
2018-07-07T02:36:53.690Z,2.07
2018-07-07T02:39:21.645Z,1.43
2018-07-07T02:41:49.565Z,66.60
2018-07-07T02:44:17.360Z,48.07
2018-07-07T02:46:45.246Z,0.80
2018-07-07T02:49:13.224Z,36.23
2018-07-07T02:51:41.348Z,211.33
2018-07-07T02:54:09.137Z,1.77
2018-07-07T02:56:36.952Z,46.63
2018-07-07T02:59:04.900Z,11.37
2018-07-07T03:01:32.797Z,3.53
2018-07-07T03:04:00.621Z,2.33
2018-07-07T03:06:28.518Z,3.80
2018-07-07T03:08:56.186Z,25.67
2018-07-07T03:11:23.848Z,8.60
2018-07-07T03:13:51.765Z,12.60
2018-07-07T03:16:19.624Z,3.80
2018-07-07T03:18:47.565Z,2.93
2018-07-07T03:21:15.533Z,3.30
2018-07-07T03:23:44.484Z,8.30
2018-07-07T03:26:12.269Z,999.90
2018-07-07T03:28:39.979Z,999.90
2018-07-07T03:31:08.107Z,999.90
2018-07-07T03:33:36.012Z,39.97
2018-07-07T03:36:03.902Z,2.20
2018-07-07T03:38:31.687Z,0.50
2018-07-07T03:40:59.552Z,0.73
2018-07-07T03:43:27.931Z,1.33
2018-07-07T03:45:56.428Z,999.90
2018-07-07T03:48:24.486Z,999.90
2018-07-07T03:50:52.467Z,999.90
2018-07-07T03:53:21.135Z,999.90
2018-07-07T03:55:49.046Z,999.90
2018-07-07T03:58:16.918Z,48.33
2018-07-07T04:00:45.273Z,1.30
2018-07-07T04:03:13.249Z,999.90
2018-07-07T04:05:41.111Z,999.90
2018-07-07T04:08:09.260Z,999.90
2018-07-07T04:10:37.784Z,999.90
2018-07-07T04:13:05.669Z,999.90
2018-07-07T04:15:33.537Z,999.90
2018-07-07T04:18:01.338Z,181.20
2018-07-07T04:20:29.537Z,1.60
2018-07-07T04:22:57.393Z,0.80
2018-07-07T04:25:25.801Z,74.47
2018-07-07T04:27:53.508Z,999.90
2018-07-07T04:30:21.986Z,457.43
2018-07-07T04:32:49.826Z,143.20
2018-07-07T04:35:17.866Z,32.63
2018-07-07T04:37:46.144Z,0.60
2018-07-07T04:40:14.004Z,1.00
2018-07-07T04:42:41.745Z,0.40
2018-07-07T04:45:09.679Z,999.90
2018-07-07T04:47:37.652Z,47.07
2018-07-07T04:50:05.670Z,0.70
2018-07-07T04:52:33.698Z,674.67
2018-07-07T04:55:01.527Z,999.90
2018-07-07T04:57:29.288Z,34.20
2018-07-07T04:59:57.181Z,6.70
2018-07-07T05:02:24.961Z,11.77
2018-07-07T05:04:52.782Z,0.20
2018-07-07T05:07:20.460Z,0.40
2018-07-07T05:09:48.241Z,0.43
2018-07-07T05:12:16.094Z,0.40
2018-07-07T05:14:43.921Z,0.37
2018-07-07T05:17:12.520Z,0.50
2018-07-07T05:19:40.464Z,0.30
2018-07-07T05:22:08.373Z,1.67
2018-07-07T05:24:36.329Z,2.60
2018-07-07T05:27:04.978Z,2.67
2018-07-07T05:29:32.997Z,2.83
2018-07-07T05:32:00.945Z,1.60
2018-07-07T05:34:28.972Z,3.27
2018-07-07T05:36:56.800Z,35.57
2018-07-07T05:39:24.541Z,2.50
2018-07-07T05:41:52.392Z,2.77
2018-07-07T05:44:20.222Z,2.03
2018-07-07T05:46:48.159Z,26.77
2018-07-07T05:49:17.057Z,33.60
2018-07-07T05:51:46.005Z,2.40
2018-07-07T05:54:13.921Z,1.73
2018-07-07T05:56:41.916Z,2.23
2018-07-07T05:59:09.813Z,2.80
2018-07-07T06:01:37.846Z,2.77
2018-07-07T06:04:05.716Z,2.47
2018-07-07T06:06:34.610Z,2.83
2018-07-07T06:09:02.406Z,2.33
2018-07-07T06:11:30.376Z,2.40
2018-07-07T06:13:58.384Z,1.87
2018-07-07T06:16:26.317Z,1.93
2018-07-07T06:18:54.165Z,1.83
2018-07-07T06:21:21.866Z,2.40
2018-07-07T06:23:49.940Z,2.00
2018-07-07T06:26:17.780Z,3.73
2018-07-07T06:28:45.627Z,2.00
2018-07-07T06:31:13.656Z,2.40
2018-07-07T06:33:41.545Z,1.80
2018-07-07T06:36:09.577Z,1.97
2018-07-07T06:38:37.586Z,280.67
2018-07-07T06:41:05.463Z,3.00
2018-07-07T06:43:33.597Z,23.73
2018-07-07T06:46:01.365Z,5.10
2018-07-07T06:48:29.029Z,1.53
2018-07-07T06:50:56.757Z,2.57
2018-07-07T06:53:24.736Z,1.00
2018-07-07T06:55:52.800Z,3.10
2018-07-07T06:58:20.789Z,1.73
2018-07-07T07:00:48.593Z,1.80
2018-07-07T07:03:16.381Z,2.10
2018-07-07T07:05:44.407Z,1.00
2018-07-07T07:08:12.184Z,1.53
2018-07-07T07:10:40.049Z,1.10
2018-07-07T07:13:08.628Z,1.47
2018-07-07T07:15:36.465Z,1.93
2018-07-07T07:18:04.255Z,1.70
2018-07-07T07:20:32.135Z,1.90
2018-07-07T07:23:00.501Z,1.87
2018-07-07T07:25:28.480Z,1.50
2018-07-07T07:27:56.517Z,1.90
2018-07-07T07:30:24.308Z,1.97
2018-07-07T07:32:52.003Z,1.60
2018-07-07T07:35:19.653Z,0.80
2018-07-07T07:37:47.429Z,1.60
2018-07-07T07:40:15.391Z,1.63
2018-07-07T07:42:43.287Z,2.33
2018-07-07T07:45:11.113Z,1.57
2018-07-07T07:47:39.046Z,2.30
2018-07-07T07:50:07.043Z,1.80
2018-07-07T07:52:35.040Z,1.97
2018-07-07T07:55:02.880Z,1.67
2018-07-07T07:57:30.954Z,1.80
2018-07-07T07:59:59.464Z,3.00
2018-07-07T08:02:27.730Z,2.10
2018-07-07T08:04:56.413Z,2.10
2018-07-07T08:07:24.256Z,2.00
2018-07-07T08:09:51.997Z,2.23
2018-07-07T08:12:19.932Z,1.53
2018-07-07T08:14:47.866Z,2.17
2018-07-07T08:17:15.640Z,2.07
2018-07-07T08:19:43.494Z,1.10
2018-07-07T08:22:11.263Z,2.30
2018-07-07T08:24:39.103Z,2.30
2018-07-07T08:27:06.897Z,2.10
2018-07-07T08:29:34.901Z,2.20
2018-07-07T08:32:02.728Z,2.20
2018-07-07T08:34:30.607Z,1.70
2018-07-07T08:36:58.512Z,2.03
2018-07-07T08:39:26.381Z,1.70
2018-07-07T08:41:54.447Z,2.10
2018-07-07T08:44:22.459Z,1.90
2018-07-07T08:46:50.259Z,1.87
2018-07-07T08:49:18.021Z,1.40
2018-07-07T08:51:46.026Z,2.63
2018-07-07T08:54:14.549Z,1.60
2018-07-07T08:56:42.502Z,1.93
2018-07-07T08:59:10.248Z,2.40
2018-07-07T09:01:38.251Z,1.70
2018-07-07T09:04:06.778Z,1.60
2018-07-07T09:06:34.801Z,1.90
2018-07-07T09:09:03.077Z,1.70
2018-07-07T09:11:30.971Z,1.97
2018-07-07T09:13:58.759Z,2.03
2018-07-07T09:16:26.702Z,1.77
2018-07-07T09:18:54.648Z,2.83
2018-07-07T09:21:22.715Z,1.87
2018-07-07T09:23:50.653Z,0.67
2018-07-07T09:26:18.972Z,2.20
2018-07-07T09:28:46.788Z,1.80
2018-07-07T09:31:14.557Z,1.90
2018-07-07T09:33:42.450Z,1.83
2018-07-07T09:36:10.486Z,1.20
2018-07-07T09:38:38.343Z,1.70
2018-07-07T09:41:06.185Z,2.10
2018-07-07T09:43:33.995Z,2.70
2018-07-07T09:46:01.805Z,1.10
2018-07-07T09:48:29.672Z,2.23
2018-07-07T09:50:58.489Z,1.77
2018-07-07T09:53:26.947Z,2.20
2018-07-07T09:55:54.964Z,2.33
2018-07-07T09:58:22.895Z,1.77
2018-07-07T10:00:50.786Z,1.10
2018-07-07T10:03:18.725Z,2.33
2018-07-07T10:05:46.792Z,1.87
2018-07-07T10:08:14.780Z,1.80
2018-07-07T10:10:42.583Z,2.30
2018-07-07T10:13:10.532Z,1.70
2018-07-07T10:15:38.365Z,1.70
2018-07-07T10:18:06.268Z,2.00
2018-07-07T10:20:34.168Z,1.73
2018-07-07T10:23:03.155Z,2.20
2018-07-07T10:25:31.015Z,2.07
2018-07-07T10:27:58.997Z,2.13
2018-07-07T10:30:26.968Z,1.63
2018-07-07T10:32:54.861Z,1.60
2018-07-07T10:35:22.876Z,2.13
2018-07-07T10:37:50.877Z,0.80
2018-07-07T10:40:18.875Z,2.37
2018-07-07T10:42:47.456Z,1.33
2018-07-07T10:45:16.362Z,2.00
2018-07-07T10:47:44.352Z,1.50
2018-07-07T10:50:12.221Z,0.60
2018-07-07T10:52:40.187Z,2.30
2018-07-07T10:55:08.283Z,1.97
2018-07-07T10:57:36.213Z,1.90
2018-07-07T11:00:04.486Z,1.33
2018-07-07T11:02:32.504Z,1.93
2018-07-07T11:05:00.437Z,1.90
2018-07-07T11:07:28.257Z,1.83
2018-07-07T11:09:55.992Z,2.27
2018-07-07T11:12:23.732Z,1.63
2018-07-07T11:14:51.669Z,1.77
2018-07-07T11:17:19.535Z,2.03
2018-07-07T11:19:47.463Z,1.67
2018-07-07T11:22:15.236Z,1.60
2018-07-07T11:24:43.049Z,1.70
2018-07-07T11:27:11.066Z,1.90
2018-07-07T11:29:39.112Z,2.00
2018-07-07T11:32:06.858Z,1.37
2018-07-07T11:34:34.768Z,2.17
2018-07-07T11:37:02.663Z,1.70
2018-07-07T11:39:30.541Z,1.10
2018-07-07T11:41:58.449Z,1.70
2018-07-07T11:44:26.477Z,2.17
2018-07-07T11:46:54.401Z,1.57
2018-07-07T11:49:22.348Z,1.60
2018-07-07T11:51:50.154Z,2.00
2018-07-07T11:54:18.113Z,1.90
2018-07-07T11:56:45.985Z,2.20
2018-07-07T11:59:14.026Z,1.87
2018-07-07T12:01:42.144Z,2.00
2018-07-07T12:04:10.020Z,2.30
2018-07-07T12:06:37.868Z,1.10
2018-07-07T12:09:05.872Z,1.80
2018-07-07T12:11:33.996Z,2.60
2018-07-07T12:14:01.905Z,1.57
2018-07-07T12:16:29.896Z,2.43
2018-07-07T12:18:58.456Z,2.20
2018-07-07T12:21:26.401Z,1.23
2018-07-07T12:23:54.240Z,2.50
2018-07-07T12:26:22.172Z,0.77
2018-07-07T12:28:50.348Z,1.93
2018-07-07T12:31:18.014Z,2.00
2018-07-07T12:33:46.097Z,1.90
2018-07-07T12:36:14.066Z,1.77
2018-07-07T12:38:42.027Z,1.63
2018-07-07T12:41:09.937Z,1.87
2018-07-07T12:43:38.024Z,1.20
2018-07-07T12:46:06.014Z,1.10
2018-07-07T12:48:33.823Z,2.93
2018-07-07T12:51:01.457Z,1.63
2018-07-07T12:53:29.312Z,1.30
2018-07-07T12:55:57.090Z,1.80
2018-07-07T12:58:24.897Z,2.33
2018-07-07T13:00:52.825Z,1.67
2018-07-07T13:03:20.706Z,1.70
2018-07-07T13:05:48.524Z,2.03
2018-07-07T13:08:16.444Z,2.10
2018-07-07T13:10:44.445Z,1.30
2018-07-07T13:13:12.511Z,1.60
2018-07-07T13:15:41.167Z,1.87
2018-07-07T13:18:08.996Z,1.77
2018-07-07T13:20:36.888Z,1.90
2018-07-07T13:23:06.212Z,1.20
2018-07-07T13:25:34.169Z,1.53
2018-07-07T13:28:03.237Z,1.57
2018-07-07T13:30:31.084Z,1.57
2018-07-07T13:32:59.037Z,1.30
2018-07-07T13:35:27.146Z,1.90
2018-07-07T13:37:55.145Z,1.03
2018-07-07T13:40:22.904Z,1.63
2018-07-07T13:42:50.709Z,2.10
2018-07-07T13:45:18.672Z,1.80
2018-07-07T13:47:46.968Z,1.70
2018-07-07T13:50:14.858Z,1.67
2018-07-07T13:52:42.940Z,1.43
2018-07-07T13:55:10.911Z,1.50
2018-07-07T13:57:39.444Z,1.13
2018-07-07T14:00:07.483Z,1.43
2018-07-07T14:02:36.064Z,1.90
2018-07-07T14:05:04.528Z,2.40
2018-07-07T14:07:32.333Z,1.80
2018-07-07T14:10:00.561Z,1.60
2018-07-07T14:12:28.461Z,69.80
2018-07-07T14:14:56.578Z,1.80
2018-07-07T14:17:24.482Z,1.00
2018-07-07T14:19:52.474Z,0.60
2018-07-07T14:22:20.354Z,0.40
2018-07-07T14:24:48.298Z,0.60
2018-07-07T14:27:15.995Z,0.40
2018-07-07T14:29:43.953Z,0.27
2018-07-07T14:32:11.809Z,1.37
2018-07-07T14:34:40.072Z,1.90
2018-07-07T14:37:07.835Z,1.77
2018-07-07T14:39:39.397Z,1.73
2018-07-07T14:42:11.554Z,2.07
2018-07-07T14:44:39.425Z,1.43
2018-07-07T14:47:07.448Z,1.80
2018-07-07T14:49:36.383Z,1.90
2018-07-07T14:52:04.380Z,1.70
2018-07-07T14:54:32.290Z,1.63
2018-07-07T14:57:00.175Z,1.50
2018-07-07T14:59:27.939Z,1.80
2018-07-07T15:01:55.901Z,1.70
2018-07-07T15:04:23.787Z,1.60
2018-07-07T15:06:51.841Z,1.77
2018-07-07T15:09:19.859Z,3.13
2018-07-07T15:11:47.765Z,1.70
2018-07-07T15:14:15.414Z,1.67
2018-07-07T15:16:43.999Z,1.60
2018-07-07T15:19:12.005Z,2.40
2018-07-07T15:21:40.028Z,2.20
2018-07-07T15:24:07.911Z,1.83
2018-07-07T15:26:36.027Z,1.60
2018-07-07T15:29:04.585Z,1.73
2018-07-07T15:31:32.381Z,2.43
2018-07-07T15:34:00.215Z,1.77
2018-07-07T15:36:28.861Z,1.40
2018-07-07T15:38:56.924Z,1.30
2018-07-07T15:41:24.728Z,1.70
2018-07-07T15:43:52.763Z,2.30
2018-07-07T15:46:20.696Z,2.30
2018-07-07T15:48:48.819Z,1.73
2018-07-07T15:51:16.790Z,1.77
2018-07-07T15:53:45.541Z,1.60
2018-07-07T15:56:13.645Z,1.93
2018-07-07T15:58:41.443Z,1.60
2018-07-07T16:01:09.213Z,2.60
2018-07-07T16:03:37.136Z,1.87
2018-07-07T16:06:05.421Z,3.23
2018-07-07T16:08:33.332Z,2.40
2018-07-07T16:11:01.161Z,3.40
2018-07-07T16:13:28.949Z,4.80
2018-07-07T16:15:56.677Z,2.70
2018-07-07T16:18:25.385Z,2.60
2018-07-07T16:20:53.233Z,2.67
2018-07-07T16:23:21.016Z,2.20
2018-07-07T16:25:49.012Z,1.90
2018-07-07T16:28:17.559Z,2.30
2018-07-07T16:30:45.416Z,3.70
2018-07-07T16:33:13.158Z,2.60
2018-07-07T16:35:41.229Z,2.13
2018-07-07T16:38:09.160Z,2.43
2018-07-07T16:40:37.153Z,2.70
2018-07-07T16:43:05.116Z,2.50
2018-07-07T16:45:33.108Z,2.50
2018-07-07T16:48:01.053Z,1.60
2018-07-07T16:50:29.408Z,2.57
2018-07-07T16:52:57.472Z,2.53
2018-07-07T16:55:25.863Z,2.20
2018-07-07T16:57:53.917Z,2.30
2018-07-07T17:00:21.791Z,1.93
2018-07-07T17:02:50.410Z,2.23
2018-07-07T17:05:18.297Z,2.43
2018-07-07T17:07:46.928Z,2.23
2018-07-07T17:10:15.592Z,2.10
2018-07-07T17:12:43.508Z,1.50
2018-07-07T17:15:11.486Z,1.20
2018-07-07T17:17:39.774Z,1.50
2018-07-07T17:20:07.850Z,2.00
2018-07-07T17:22:35.868Z,2.20
2018-07-07T17:25:03.708Z,2.53
2018-07-07T17:27:31.937Z,1.17
2018-07-07T17:30:00.368Z,2.30
2018-07-07T17:32:28.575Z,1.83
2018-07-07T17:34:56.620Z,1.90
2018-07-07T17:37:24.467Z,1.40
2018-07-07T17:39:52.848Z,1.80
2018-07-07T17:42:20.743Z,1.40
2018-07-07T17:44:48.940Z,1.50
2018-07-07T17:47:16.516Z,1.43
2018-07-07T17:49:44.223Z,2.10
2018-07-07T17:52:12.220Z,1.67
2018-07-07T17:54:40.147Z,2.23
2018-07-07T17:57:08.017Z,2.30
2018-07-07T17:59:35.764Z,2.20
2018-07-07T18:02:03.820Z,1.87
2018-07-07T18:04:31.437Z,2.27
2018-07-07T18:06:59.436Z,2.57
2018-07-07T18:09:27.293Z,1.70
2018-07-07T18:11:55.240Z,2.30
2018-07-07T18:14:23.071Z,2.20
2018-07-07T18:16:51.039Z,1.73
2018-07-07T18:19:19.023Z,1.90
2018-07-07T18:21:46.798Z,2.30
2018-07-07T18:24:14.511Z,1.30
2018-07-07T18:26:42.607Z,2.50
2018-07-07T18:29:10.426Z,2.13
2018-07-07T18:31:38.146Z,1.60
2018-07-07T18:34:06.181Z,2.30
2018-07-07T18:36:34.169Z,1.90
2018-07-07T18:39:02.021Z,2.90
2018-07-07T18:41:29.827Z,2.60
2018-07-07T18:43:57.648Z,2.53
2018-07-07T18:46:25.497Z,2.10
2018-07-07T18:48:53.369Z,1.80
2018-07-07T18:51:21.082Z,1.90
2018-07-07T18:53:48.953Z,2.50
2018-07-07T18:56:16.780Z,2.20
2018-07-07T18:58:44.724Z,2.37
2018-07-07T19:01:12.652Z,2.37
2018-07-07T19:03:40.557Z,2.57
2018-07-07T19:06:08.209Z,2.10
2018-07-07T19:08:35.992Z,2.07
2018-07-07T19:11:03.866Z,2.23
2018-07-07T19:13:31.625Z,2.40
2018-07-07T19:15:59.486Z,2.10
2018-07-07T19:18:27.105Z,2.27
2018-07-07T19:21:00.241Z,2.03
2018-07-07T19:23:33.194Z,2.83
2018-07-07T19:26:06.122Z,2.03
2018-07-07T19:28:33.987Z,2.60
2018-07-07T19:31:01.742Z,2.30
2018-07-07T19:33:34.716Z,2.70
2018-07-07T19:36:08.737Z,3.23
2018-07-07T19:38:36.493Z,2.90
2018-07-07T19:41:04.531Z,3.07
2018-07-07T19:43:32.492Z,2.03
2018-07-07T19:46:00.414Z,2.53
2018-07-07T19:48:28.461Z,2.93
2018-07-07T19:50:56.409Z,2.50
2018-07-07T19:53:24.461Z,2.50
2018-07-07T19:55:52.636Z,2.80
2018-07-07T19:58:20.893Z,2.40
2018-07-07T20:00:48.980Z,2.87
2018-07-07T20:03:16.809Z,2.33
2018-07-07T20:05:44.460Z,2.83
2018-07-07T20:08:12.304Z,3.03
2018-07-07T20:10:40.103Z,2.17
2018-07-07T20:13:07.909Z,2.10
2018-07-07T20:15:41.143Z,2.03
2018-07-07T20:18:09.059Z,3.23
2018-07-07T20:20:42.151Z,3.00
2018-07-07T20:23:12.847Z,2.90
2018-07-07T20:25:40.633Z,2.47
2018-07-07T20:28:13.854Z,2.97
2018-07-07T20:30:41.777Z,2.77
2018-07-07T20:33:09.714Z,3.73
2018-07-07T20:35:37.736Z,2.17
2018-07-07T20:38:05.721Z,3.67
2018-07-07T20:40:33.597Z,3.90
2018-07-07T20:43:01.302Z,3.20
2018-07-07T20:45:29.037Z,2.30
2018-07-07T20:47:56.937Z,4.87
2018-07-07T20:50:25.037Z,2.83
2018-07-07T20:52:52.969Z,2.50
2018-07-07T20:55:20.936Z,2.87
2018-07-07T20:57:48.976Z,2.73
2018-07-07T21:00:16.968Z,3.83
2018-07-07T21:02:44.898Z,3.63
2018-07-07T21:05:12.767Z,3.10
2018-07-07T21:07:40.803Z,3.60
2018-07-07T21:10:08.673Z,4.00
2018-07-07T21:12:36.372Z,2.57
2018-07-07T21:15:04.113Z,2.60
2018-07-07T21:17:32.108Z,3.70
2018-07-07T21:19:59.968Z,3.23
2018-07-07T21:22:27.761Z,2.70
2018-07-07T21:24:55.636Z,2.63
2018-07-07T21:27:23.601Z,3.27
2018-07-07T21:29:51.354Z,2.70
2018-07-07T21:32:19.228Z,2.00
2018-07-07T21:34:47.055Z,2.30
2018-07-07T21:37:14.981Z,2.97
2018-07-07T21:39:42.816Z,1.67
2018-07-07T21:42:10.667Z,2.43
2018-07-07T21:44:39.060Z,5.90
2018-07-07T21:47:06.877Z,2.50
2018-07-07T21:49:34.885Z,3.40
2018-07-07T21:52:02.724Z,2.20
2018-07-07T21:54:30.426Z,3.10
2018-07-07T21:56:58.376Z,2.50
2018-07-07T21:59:26.139Z,2.57
2018-07-07T22:01:59.614Z,2.77
2018-07-07T22:04:34.127Z,4.53
2018-07-07T22:07:07.730Z,2.50
2018-07-07T22:09:36.224Z,3.17
2018-07-07T22:12:04.505Z,2.87
2018-07-07T22:14:32.666Z,2.80
2018-07-07T22:17:00.579Z,2.83
2018-07-07T22:19:28.340Z,2.60
2018-07-07T22:22:00.319Z,2.77
2018-07-07T22:24:28.185Z,2.73
2018-07-07T22:27:00.280Z,2.90
2018-07-07T22:29:28.896Z,2.90
2018-07-07T22:31:58.076Z,3.90
2018-07-07T22:34:26.576Z,3.23
2018-07-07T22:36:54.701Z,2.73
2018-07-07T22:39:22.448Z,2.77
2018-07-07T22:41:51.186Z,2.70
2018-07-07T22:44:19.117Z,2.70
2018-07-07T22:46:46.954Z,2.80
2018-07-07T22:49:14.720Z,2.30
2018-07-07T22:51:42.749Z,3.10
2018-07-07T22:54:10.777Z,729.13
2018-07-07T22:56:39.025Z,2.13
2018-07-07T22:59:06.996Z,1.77
2018-07-07T23:01:34.893Z,1.90
2018-07-07T23:04:02.858Z,1.53
2018-07-07T23:06:30.902Z,2.00
2018-07-07T23:08:58.788Z,1.53
2018-07-07T23:11:26.601Z,2.20
2018-07-07T23:13:54.724Z,1.67
2018-07-07T23:16:22.348Z,2.80
2018-07-07T23:18:49.953Z,1.73
2018-07-07T23:21:17.693Z,2.23
2018-07-07T23:23:45.394Z,2.10
2018-07-07T23:26:13.803Z,1.57
2018-07-07T23:28:41.763Z,1.47
2018-07-07T23:31:09.597Z,2.60
2018-07-07T23:33:37.424Z,1.40
2018-07-07T23:36:05.358Z,2.20
2018-07-07T23:38:33.185Z,1.23
2018-07-07T23:41:00.965Z,1.93
2018-07-07T23:43:28.992Z,2.57
2018-07-07T23:45:56.854Z,1.77
2018-07-07T23:48:24.541Z,1.23
2018-07-07T23:50:52.208Z,2.07
2018-07-07T23:53:20.240Z,1.63
2018-07-07T23:55:48.278Z,1.97
2018-07-07T23:58:16.257Z,1.93
